NDF61D EDDH-LOWW
Flight info
| Callsign | NDF61D |
|---|---|
| Flight time | N/A |
| Altitude | 37000 |
| Route | RAMAR6C RAMAR Z998 RATMO DCT HDO DCT EVIKU DCT BITSI DCT MIKOV MIKOV8W |
| Aircraft | A320/M-SDE3FGHIRWY/LB1 |
Departure
| Time | 2026-05-07 16:57 |
|---|---|
| Airport | Hamburg Helmut Schmidt Airport (EDDH) |
Arrival
| Time | N/A |
|---|---|
| Airport | Vienna International Airport (LOWW) |
| Time | Latitude | Longitude | Altitude | Speed | Heading |
|---|---|---|---|---|---|
| 2026-05-07 15:35 | 53.63195 | 10.00369 | 51 ft | 0 kts | 86° |
| 2026-05-07 16:48 | 53.63194 | 10.00338 | 51 ft | 4 kts | 86° |
| 2026-05-07 16:48 | 53.63192 | 10.00294 | 51 ft | 3 kts | 85° |
| 2026-05-07 16:49 | 53.63192 | 10.00257 | 50 ft | 4 kts | 119° |
| 2026-05-07 16:49 | 53.63209 | 10.00238 | 49 ft | 4 kts | 181° |
| 2026-05-07 16:49 | 53.63232 | 10.00240 | 51 ft | 0 kts | 181° |
| 2026-05-07 16:53 | 53.63231 | 10.00241 | 51 ft | 1 kts | 180° |
| 2026-05-07 16:53 | 53.63196 | 10.00245 | 48 ft | 6 kts | 176° |
| 2026-05-07 16:53 | 53.63157 | 10.00250 | 51 ft | 6 kts | 175° |
| 2026-05-07 16:54 | 53.63117 | 10.00255 | 51 ft | 5 kts | 175° |
| 2026-05-07 16:54 | 53.63084 | 10.00260 | 51 ft | 4 kts | 176° |
| 2026-05-07 16:54 | 53.63041 | 10.00237 | 51 ft | 11 kts | 208° |
| 2026-05-07 16:54 | 53.62977 | 10.00168 | 51 ft | 10 kts | 212° |
| 2026-05-07 16:55 | 53.62920 | 10.00107 | 51 ft | 9 kts | 212° |
| 2026-05-07 16:55 | 53.62871 | 10.00053 | 50 ft | 8 kts | 215° |
| 2026-05-07 16:55 | 53.62830 | 9.99996 | 52 ft | 9 kts | 220° |
| 2026-05-07 16:55 | 53.62826 | 9.99955 | 52 ft | 4 kts | 272° |
| 2026-05-07 16:56 | 53.62818 | 9.99903 | 50 ft | 4 kts | 238° |
| 2026-05-07 16:56 | 53.62804 | 9.99817 | 53 ft | 10 kts | 278° |
| 2026-05-07 16:56 | 53.62890 | 9.99720 | 53 ft | 15 kts | 332° |
| 2026-05-07 16:57 | 53.63177 | 9.99474 | 51 ft | 82 kts | 333° |
| 2026-05-07 16:57 | 53.63871 | 9.98872 | 49 ft | 140 kts | 333° |
| 2026-05-07 16:57 | 53.64836 | 9.98021 | 316 ft | 162 kts | 335° |
| 2026-05-07 16:57 | 53.66139 | 9.96862 | 1354 ft | 158 kts | 336° |
| 2026-05-07 16:58 | 53.66793 | 9.96274 | 1832 ft | 160 kts | 336° |
| 2026-05-07 16:58 | 53.67860 | 9.95340 | 2176 ft | 183 kts | 338° |
| 2026-05-07 16:58 | 53.69106 | 9.94588 | 2542 ft | 198 kts | 358° |
| 2026-05-07 16:58 | 53.70524 | 9.94614 | 3032 ft | 208 kts | 6° |
| 2026-05-07 16:59 | 53.71978 | 9.94728 | 3674 ft | 210 kts | 8° |
| 2026-05-07 16:59 | 53.73354 | 9.95553 | 4213 ft | 215 kts | 38° |
| 2026-05-07 16:59 | 53.74358 | 9.97474 | 4758 ft | 229 kts | 62° |
| 2026-05-07 16:59 | 53.75133 | 9.99986 | 5172 ft | 253 kts | 63° |
| 2026-05-07 17:00 | 53.75750 | 10.02906 | 5984 ft | 260 kts | 82° |
| 2026-05-07 17:00 | 53.75634 | 10.05864 | 6827 ft | 266 kts | 107° |
| 2026-05-07 17:00 | 53.74733 | 10.08631 | 7707 ft | 271 kts | 122° |
| 2026-05-07 17:00 | 53.73712 | 10.11322 | 8656 ft | 273 kts | 121° |
| 2026-05-07 17:01 | 53.72716 | 10.14076 | 9614 ft | 276 kts | 121° |
| 2026-05-07 17:01 | 53.71701 | 10.16905 | 10286 ft | 287 kts | 121° |
| 2026-05-07 17:01 | 53.70694 | 10.19715 | 10588 ft | 309 kts | 121° |
| 2026-05-07 17:01 | 53.69558 | 10.22870 | 10903 ft | 329 kts | 121° |
| 2026-05-07 17:02 | 53.68348 | 10.26215 | 11523 ft | 337 kts | 121° |
| 2026-05-07 17:02 | 53.67136 | 10.29564 | 12241 ft | 342 kts | 121° |
| 2026-05-07 17:02 | 53.65891 | 10.33000 | 12967 ft | 346 kts | 122° |
| 2026-05-07 17:02 | 53.64626 | 10.36485 | 13687 ft | 350 kts | 122° |
| 2026-05-07 17:03 | 53.63348 | 10.40005 | 14354 ft | 354 kts | 122° |
| 2026-05-07 17:03 | 53.62058 | 10.43552 | 15015 ft | 357 kts | 122° |
| 2026-05-07 17:03 | 53.60899 | 10.46730 | 15560 ft | 361 kts | 122° |
| 2026-05-07 17:03 | 53.59578 | 10.50347 | 16182 ft | 365 kts | 122° |
| 2026-05-07 17:04 | 53.58243 | 10.53995 | 16810 ft | 369 kts | 122° |
| 2026-05-07 17:04 | 53.56889 | 10.57689 | 17415 ft | 373 kts | 122° |
| 2026-05-07 17:04 | 53.55515 | 10.61430 | 18050 ft | 376 kts | 122° |
| 2026-05-07 17:04 | 53.54138 | 10.65180 | 18583 ft | 381 kts | 122° |
| 2026-05-07 17:05 | 53.52742 | 10.68983 | 19101 ft | 384 kts | 122° |
| 2026-05-07 17:05 | 53.51322 | 10.72845 | 19602 ft | 388 kts | 122° |
| 2026-05-07 17:05 | 53.49897 | 10.76710 | 20150 ft | 391 kts | 123° |
| 2026-05-07 17:05 | 53.48462 | 10.80595 | 20704 ft | 393 kts | 122° |
| 2026-05-07 17:06 | 53.47019 | 10.84496 | 21208 ft | 396 kts | 123° |
| 2026-05-07 17:06 | 53.45553 | 10.88448 | 21839 ft | 400 kts | 123° |
| 2026-05-07 17:06 | 53.44072 | 10.92432 | 22400 ft | 404 kts | 123° |
| 2026-05-07 17:06 | 53.42585 | 10.96428 | 22885 ft | 406 kts | 123° |
| 2026-05-07 17:07 | 53.41082 | 11.00461 | 23377 ft | 409 kts | 123° |
| 2026-05-07 17:07 | 53.39564 | 11.04535 | 23818 ft | 412 kts | 123° |
| 2026-05-07 17:07 | 53.38038 | 11.08619 | 24221 ft | 414 kts | 123° |
| 2026-05-07 17:07 | 53.36502 | 11.12720 | 24611 ft | 417 kts | 123° |
| 2026-05-07 17:08 | 53.34961 | 11.16835 | 25026 ft | 419 kts | 123° |
| 2026-05-07 17:08 | 53.33427 | 11.20923 | 25438 ft | 421 kts | 123° |
| 2026-05-07 17:08 | 53.31866 | 11.25072 | 25821 ft | 423 kts | 123° |
| 2026-05-07 17:08 | 53.30294 | 11.29242 | 26198 ft | 425 kts | 123° |
| 2026-05-07 17:09 | 53.28714 | 11.33427 | 26561 ft | 428 kts | 122° |
| 2026-05-07 17:09 | 53.27074 | 11.37571 | 26993 ft | 427 kts | 129° |
| 2026-05-07 17:09 | 53.25107 | 11.41285 | 27424 ft | 426 kts | 137° |
| 2026-05-07 17:09 | 53.22921 | 11.44634 | 27824 ft | 427 kts | 139° |
| 2026-05-07 17:10 | 53.20720 | 11.47988 | 28216 ft | 429 kts | 139° |
| 2026-05-07 17:10 | 53.18518 | 11.51348 | 28606 ft | 431 kts | 138° |
| 2026-05-07 17:10 | 53.16296 | 11.54744 | 28931 ft | 434 kts | 139° |
| 2026-05-07 17:10 | 53.14072 | 11.58149 | 29255 ft | 437 kts | 139° |
| 2026-05-07 17:11 | 53.11830 | 11.61585 | 29586 ft | 439 kts | 139° |
| 2026-05-07 17:11 | 53.09575 | 11.65044 | 29939 ft | 441 kts | 138° |
| 2026-05-07 17:11 | 53.07320 | 11.68498 | 30236 ft | 442 kts | 139° |
| 2026-05-07 17:11 | 53.05048 | 11.71970 | 30493 ft | 444 kts | 139° |
| 2026-05-07 17:12 | 53.02767 | 11.75442 | 30750 ft | 446 kts | 138° |
| 2026-05-07 17:12 | 53.00475 | 11.78920 | 31098 ft | 445 kts | 138° |
| 2026-05-07 17:12 | 52.98339 | 11.82618 | 31432 ft | 445 kts | 129° |
| 2026-05-07 17:12 | 52.96455 | 11.86692 | 31770 ft | 444 kts | 128° |
| 2026-05-07 17:13 | 52.94593 | 11.90775 | 32157 ft | 443 kts | 128° |
| 2026-05-07 17:13 | 52.92730 | 11.94858 | 32468 ft | 444 kts | 128° |
| 2026-05-07 17:13 | 52.90871 | 11.98930 | 32775 ft | 444 kts | 128° |
| 2026-05-07 17:13 | 52.89005 | 12.03000 | 33099 ft | 444 kts | 128° |
| 2026-05-07 17:14 | 52.87157 | 12.07010 | 33406 ft | 444 kts | 128° |
| 2026-05-07 17:14 | 52.85278 | 12.11075 | 33716 ft | 445 kts | 128° |
| 2026-05-07 17:14 | 52.83398 | 12.15149 | 34039 ft | 445 kts | 128° |
| 2026-05-07 17:14 | 52.81524 | 12.19212 | 34294 ft | 445 kts | 128° |
| 2026-05-07 17:15 | 52.79652 | 12.23278 | 34590 ft | 444 kts | 128° |
| 2026-05-07 17:15 | 52.77780 | 12.27340 | 34830 ft | 445 kts | 128° |
| 2026-05-07 17:15 | 52.75906 | 12.31396 | 35076 ft | 445 kts | 128° |
| 2026-05-07 17:15 | 52.74026 | 12.35451 | 35296 ft | 445 kts | 129° |
| 2026-05-07 17:16 | 52.72135 | 12.39507 | 35526 ft | 446 kts | 130° |
| 2026-05-07 17:16 | 52.70021 | 12.43225 | 35741 ft | 444 kts | 140° |
| 2026-05-07 17:16 | 52.67586 | 12.46364 | 35945 ft | 444 kts | 146° |
| 2026-05-07 17:16 | 52.65049 | 12.49254 | 36153 ft | 444 kts | 146° |
| 2026-05-07 17:17 | 52.62503 | 12.52154 | 36357 ft | 445 kts | 146° |
| 2026-05-07 17:17 | 52.59941 | 12.55068 | 36559 ft | 445 kts | 147° |
| 2026-05-07 17:17 | 52.57412 | 12.57942 | 36752 ft | 445 kts | 147° |
| 2026-05-07 17:17 | 52.54863 | 12.60831 | 36956 ft | 446 kts | 147° |
| 2026-05-07 17:18 | 52.49765 | 12.66609 | 37071 ft | 445 kts | 147° |
| 2026-05-07 17:18 | 52.44670 | 12.72370 | 37070 ft | 444 kts | 147° |
| 2026-05-07 17:19 | 52.39574 | 12.78113 | 37070 ft | 444 kts | 147° |
| 2026-05-07 17:19 | 52.34481 | 12.83844 | 37070 ft | 444 kts | 147° |
| 2026-05-07 17:20 | 52.29383 | 12.89560 | 37072 ft | 445 kts | 147° |
| 2026-05-07 17:20 | 52.24311 | 12.95234 | 37069 ft | 445 kts | 147° |
| 2026-05-07 17:21 | 52.19205 | 13.00913 | 37072 ft | 444 kts | 147° |
| 2026-05-07 17:21 | 52.14103 | 13.06580 | 37075 ft | 444 kts | 147° |
| 2026-05-07 17:22 | 52.09000 | 13.12246 | 37080 ft | 444 kts | 147° |
| 2026-05-07 17:22 | 52.03888 | 13.17905 | 37078 ft | 444 kts | 147° |
| 2026-05-07 17:23 | 51.98774 | 13.23540 | 37084 ft | 445 kts | 148° |
| 2026-05-07 17:23 | 51.93656 | 13.29158 | 37075 ft | 444 kts | 148° |
| 2026-05-07 17:24 | 51.88535 | 13.34770 | 37081 ft | 444 kts | 148° |
| 2026-05-07 17:24 | 51.83418 | 13.40365 | 37084 ft | 444 kts | 148° |
| 2026-05-07 17:25 | 51.78297 | 13.45945 | 37084 ft | 444 kts | 148° |
| 2026-05-07 17:25 | 51.73181 | 13.51498 | 37079 ft | 444 kts | 148° |
| 2026-05-07 17:26 | 51.68131 | 13.56974 | 37077 ft | 444 kts | 148° |
| 2026-05-07 17:26 | 51.63008 | 13.62516 | 37075 ft | 444 kts | 148° |
| 2026-05-07 17:27 | 51.59237 | 13.66678 | 37061 ft | 444 kts | 148° |
| 2026-05-07 17:27 | 51.54107 | 13.72196 | 37070 ft | 443 kts | 149° |
| 2026-05-07 17:28 | 51.48959 | 13.77647 | 37062 ft | 443 kts | 149° |
| 2026-05-07 17:28 | 51.43825 | 13.83107 | 37066 ft | 443 kts | 149° |
| 2026-05-07 17:29 | 51.38694 | 13.88583 | 37060 ft | 443 kts | 149° |
| 2026-05-07 17:29 | 51.33557 | 13.94061 | 37054 ft | 443 kts | 149° |
| 2026-05-07 17:30 | 51.28421 | 13.99521 | 37063 ft | 444 kts | 149° |
| 2026-05-07 17:30 | 51.23272 | 14.04966 | 37062 ft | 444 kts | 149° |
| 2026-05-07 17:31 | 51.18124 | 14.10390 | 37042 ft | 444 kts | 149° |
| 2026-05-07 17:31 | 51.12973 | 14.15808 | 37046 ft | 444 kts | 149° |
| 2026-05-07 17:32 | 51.07819 | 14.21219 | 37041 ft | 444 kts | 149° |
| 2026-05-07 17:32 | 51.03529 | 14.25707 | 37046 ft | 444 kts | 149° |
| 2026-05-07 17:33 | 50.97487 | 14.32014 | 37021 ft | 444 kts | 149° |
| 2026-05-07 17:33 | 50.92144 | 14.36821 | 37030 ft | 440 kts | 162° |
| 2026-05-07 17:34 | 50.86264 | 14.39301 | 37023 ft | 437 kts | 169° |
| 2026-05-07 17:34 | 50.80373 | 14.41488 | 37010 ft | 438 kts | 169° |
| 2026-05-07 17:35 | 50.74433 | 14.43710 | 37019 ft | 438 kts | 169° |
| 2026-05-07 17:35 | 50.68497 | 14.45912 | 37020 ft | 439 kts | 169° |
| 2026-05-07 17:36 | 50.62553 | 14.48101 | 37014 ft | 439 kts | 169° |
| 2026-05-07 17:36 | 50.56598 | 14.50293 | 37004 ft | 439 kts | 169° |
| 2026-05-07 17:37 | 50.50648 | 14.52479 | 36996 ft | 438 kts | 168° |
| 2026-05-07 17:37 | 50.47796 | 14.53992 | 37000 ft | 427 kts | 158° |
| 2026-05-07 17:37 | 50.45211 | 14.56171 | 37000 ft | 419 kts | 149° |
| 2026-05-07 17:38 | 50.40999 | 14.61873 | 36987 ft | 422 kts | 139° |
| 2026-05-07 17:38 | 50.37456 | 14.67262 | 36989 ft | 432 kts | 139° |
| 2026-05-07 17:39 | 50.32920 | 14.74110 | 36989 ft | 444 kts | 139° |
| 2026-05-07 17:39 | 50.28444 | 14.80843 | 36989 ft | 448 kts | 139° |
| 2026-05-07 17:40 | 50.23984 | 14.87554 | 36971 ft | 448 kts | 139° |
| 2026-05-07 17:40 | 50.19490 | 14.94302 | 36979 ft | 448 kts | 139° |
| 2026-05-07 17:41 | 50.14994 | 15.01022 | 36971 ft | 448 kts | 139° |
| 2026-05-07 17:41 | 50.10490 | 15.07740 | 36969 ft | 448 kts | 139° |
| 2026-05-07 17:42 | 50.05987 | 15.14438 | 36970 ft | 448 kts | 139° |
| 2026-05-07 17:42 | 50.01484 | 15.21125 | 36302 ft | 446 kts | 140° |
| 2026-05-07 17:43 | 49.99245 | 15.24439 | 35786 ft | 443 kts | 140° |
| 2026-05-07 17:43 | 49.97021 | 15.27726 | 35362 ft | 441 kts | 140° |
| 2026-05-07 17:43 | 49.94801 | 15.31012 | 34921 ft | 439 kts | 140° |
| 2026-05-07 17:43 | 49.92588 | 15.34281 | 34495 ft | 438 kts | 140° |
| 2026-05-07 17:44 | 49.90393 | 15.37514 | 34086 ft | 435 kts | 140° |
| 2026-05-07 17:44 | 49.88202 | 15.40733 | 33616 ft | 430 kts | 140° |
| 2026-05-07 17:44 | 49.86041 | 15.43902 | 33126 ft | 426 kts | 140° |
| 2026-05-07 17:44 | 49.83905 | 15.47036 | 32648 ft | 421 kts | 141° |
| 2026-05-07 17:45 | 49.81784 | 15.50148 | 32186 ft | 418 kts | 141° |
| 2026-05-07 17:45 | 49.79687 | 15.53219 | 31714 ft | 414 kts | 141° |
| 2026-05-07 17:45 | 49.77605 | 15.56265 | 31227 ft | 409 kts | 142° |
| 2026-05-07 17:45 | 49.75549 | 15.59262 | 30779 ft | 404 kts | 142° |
| 2026-05-07 17:46 | 49.73517 | 15.62222 | 30337 ft | 399 kts | 142° |
| 2026-05-07 17:46 | 49.72184 | 15.64163 | 30060 ft | 396 kts | 142° |
| 2026-05-07 17:46 | 49.70192 | 15.67058 | 29537 ft | 391 kts | 142° |
| 2026-05-07 17:46 | 49.67580 | 15.70855 | 28866 ft | 387 kts | 142° |
| 2026-05-07 17:47 | 49.65626 | 15.73691 | 28356 ft | 384 kts | 142° |
| 2026-05-07 17:47 | 49.64313 | 15.75594 | 28021 ft | 383 kts | 142° |
| 2026-05-07 17:47 | 49.61747 | 15.79306 | 27376 ft | 380 kts | 142° |
| 2026-05-07 17:47 | 49.60448 | 15.81180 | 27057 ft | 378 kts | 142° |
| 2026-05-07 17:48 | 49.58530 | 15.83942 | 26582 ft | 377 kts | 142° |
| 2026-05-07 17:48 | 49.56621 | 15.86692 | 26121 ft | 375 kts | 142° |
| 2026-05-07 17:48 | 49.54725 | 15.89428 | 25626 ft | 373 kts | 142° |
| 2026-05-07 17:48 | 49.52831 | 15.92161 | 25180 ft | 372 kts | 142° |
| 2026-05-07 17:49 | 49.50945 | 15.94879 | 24745 ft | 371 kts | 142° |
| 2026-05-07 17:49 | 49.49069 | 15.97578 | 24310 ft | 369 kts | 142° |
| 2026-05-07 17:49 | 49.47193 | 16.00274 | 23881 ft | 368 kts | 142° |
| 2026-05-07 17:49 | 49.45327 | 16.02954 | 23443 ft | 366 kts | 142° |
| 2026-05-07 17:50 | 49.43496 | 16.05579 | 22945 ft | 364 kts | 142° |
| 2026-05-07 17:50 | 49.41645 | 16.08231 | 22503 ft | 362 kts | 141° |
| 2026-05-07 17:50 | 49.39806 | 16.10864 | 22038 ft | 361 kts | 141° |
| 2026-05-07 17:50 | 49.37975 | 16.13477 | 21587 ft | 359 kts | 141° |
| 2026-05-07 17:51 | 49.36152 | 16.16071 | 21137 ft | 357 kts | 141° |
| 2026-05-07 17:51 | 49.34333 | 16.18650 | 20698 ft | 355 kts | 141° |
| 2026-05-07 17:51 | 49.32525 | 16.21212 | 20270 ft | 353 kts | 141° |
| 2026-05-07 17:51 | 49.30633 | 16.23560 | 19812 ft | 347 kts | 150° |
| 2026-05-07 17:52 | 49.28550 | 16.25342 | 19403 ft | 341 kts | 158° |
| 2026-05-07 17:52 | 49.26416 | 16.26919 | 18977 ft | 340 kts | 158° |
| 2026-05-07 17:52 | 49.24290 | 16.28490 | 18569 ft | 339 kts | 158° |
| 2026-05-07 17:52 | 49.22163 | 16.30063 | 18153 ft | 338 kts | 158° |
| 2026-05-07 17:53 | 49.20052 | 16.31623 | 17704 ft | 337 kts | 158° |
| 2026-05-07 17:53 | 49.17946 | 16.33180 | 17249 ft | 336 kts | 158° |
| 2026-05-07 17:53 | 49.15843 | 16.34731 | 16798 ft | 335 kts | 158° |
| 2026-05-07 17:53 | 49.13751 | 16.36272 | 16356 ft | 333 kts | 158° |
| 2026-05-07 17:54 | 49.11668 | 16.37812 | 15919 ft | 333 kts | 158° |
| 2026-05-07 17:54 | 49.09586 | 16.39349 | 15485 ft | 332 kts | 158° |
| 2026-05-07 17:54 | 49.07510 | 16.40878 | 15059 ft | 331 kts | 158° |
| 2026-05-07 17:54 | 49.05438 | 16.42403 | 14634 ft | 330 kts | 158° |
| 2026-05-07 17:55 | 49.03373 | 16.43923 | 14228 ft | 329 kts | 158° |
| 2026-05-07 17:55 | 49.01305 | 16.45442 | 13871 ft | 327 kts | 158° |
| 2026-05-07 17:55 | 48.99270 | 16.46937 | 13600 ft | 325 kts | 158° |
| 2026-05-07 17:55 | 48.97240 | 16.48424 | 13332 ft | 324 kts | 157° |
| 2026-05-07 17:56 | 48.95204 | 16.49908 | 13072 ft | 323 kts | 157° |
| 2026-05-07 17:56 | 48.93188 | 16.51379 | 12943 ft | 321 kts | 157° |
| 2026-05-07 17:56 | 48.91195 | 16.52836 | 12964 ft | 322 kts | 157° |
| 2026-05-07 17:56 | 48.89178 | 16.54311 | 12965 ft | 322 kts | 157° |
| 2026-05-07 17:57 | 48.87159 | 16.55785 | 12964 ft | 322 kts | 157° |
| 2026-05-07 17:57 | 48.85793 | 16.56783 | 12968 ft | 322 kts | 157° |
| 2026-05-07 17:57 | 48.83124 | 16.58731 | 12847 ft | 321 kts | 157° |
| 2026-05-07 17:57 | 48.81138 | 16.60176 | 12646 ft | 313 kts | 157° |
| 2026-05-07 17:58 | 48.79198 | 16.61575 | 12427 ft | 305 kts | 160° |
| 2026-05-07 17:58 | 48.77215 | 16.62534 | 12216 ft | 295 kts | 171° |
| 2026-05-07 17:58 | 48.75229 | 16.63181 | 12009 ft | 288 kts | 171° |
| 2026-05-07 17:58 | 48.73290 | 16.63818 | 11789 ft | 282 kts | 171° |
| 2026-05-07 17:59 | 48.71390 | 16.64446 | 11599 ft | 277 kts | 171° |
| 2026-05-07 17:59 | 48.69526 | 16.65062 | 11394 ft | 272 kts | 171° |
| 2026-05-07 17:59 | 48.67698 | 16.65666 | 11198 ft | 266 kts | 171° |
| 2026-05-07 17:59 | 48.65898 | 16.66257 | 10995 ft | 262 kts | 171° |
| 2026-05-07 18:00 | 48.64132 | 16.66834 | 10809 ft | 260 kts | 171° |
| 2026-05-07 18:00 | 48.62367 | 16.67411 | 10609 ft | 255 kts | 171° |
| 2026-05-07 18:00 | 48.60652 | 16.67974 | 10412 ft | 250 kts | 171° |
| 2026-05-07 18:00 | 48.58962 | 16.68528 | 10215 ft | 247 kts | 171° |
| 2026-05-07 18:01 | 48.57283 | 16.69057 | 10011 ft | 245 kts | 174° |
| 2026-05-07 18:01 | 48.55626 | 16.68854 | 9829 ft | 238 kts | 204° |
| 2026-05-07 18:01 | 48.54266 | 16.67523 | 9609 ft | 234 kts | 230° |
| 2026-05-07 18:01 | 48.53463 | 16.65427 | 9408 ft | 230 kts | 256° |
| 2026-05-07 18:02 | 48.53950 | 16.60867 | 8983 ft | 228 kts | 305° |
| 2026-05-07 18:02 | 48.55119 | 16.59285 | 8775 ft | 232 kts | 330° |
| 2026-05-07 18:02 | 48.56668 | 16.58534 | 8567 ft | 236 kts | 345° |
| 2026-05-07 18:03 | 48.58273 | 16.58027 | 8370 ft | 236 kts | 346° |
| 2026-05-07 18:03 | 48.59882 | 16.57553 | 8153 ft | 235 kts | 346° |
| 2026-05-07 18:03 | 48.61484 | 16.57083 | 8022 ft | 235 kts | 346° |
| 2026-05-07 18:03 | 48.63086 | 16.56642 | 7976 ft | 235 kts | 352° |
| 2026-05-07 18:04 | 48.64710 | 16.56953 | 7984 ft | 239 kts | 20° |
| 2026-05-07 18:04 | 48.66085 | 16.58391 | 7986 ft | 244 kts | 49° |
| 2026-05-07 18:04 | 48.66852 | 16.60666 | 7984 ft | 247 kts | 78° |
| 2026-05-07 18:04 | 48.66807 | 16.63233 | 7986 ft | 246 kts | 108° |
| 2026-05-07 18:05 | 48.65974 | 16.65459 | 7986 ft | 243 kts | 137° |
| 2026-05-07 18:05 | 48.64578 | 16.66813 | 7985 ft | 239 kts | 166° |
| 2026-05-07 18:05 | 48.62987 | 16.67393 | 7984 ft | 238 kts | 171° |
| 2026-05-07 18:05 | 48.61361 | 16.67888 | 7986 ft | 239 kts | 172° |
| 2026-05-07 18:06 | 48.59730 | 16.68369 | 7985 ft | 239 kts | 172° |
| 2026-05-07 18:06 | 48.58099 | 16.68850 | 7978 ft | 239 kts | 172° |
| 2026-05-07 18:06 | 48.56454 | 16.69102 | 7981 ft | 236 kts | 190° |
| 2026-05-07 18:06 | 48.54946 | 16.68250 | 7985 ft | 230 kts | 219° |
| 2026-05-07 18:07 | 48.53913 | 16.66450 | 7993 ft | 228 kts | 246° |
| 2026-05-07 18:07 | 48.53553 | 16.64169 | 7988 ft | 225 kts | 272° |
| 2026-05-07 18:07 | 48.53927 | 16.61893 | 7987 ft | 226 kts | 298° |
| 2026-05-07 18:07 | 48.54973 | 16.60125 | 7988 ft | 229 kts | 325° |
| 2026-05-07 18:08 | 48.56462 | 16.59244 | 8007 ft | 233 kts | 345° |
| 2026-05-07 18:08 | 48.58033 | 16.58731 | 7993 ft | 234 kts | 346° |
| 2026-05-07 18:08 | 48.59631 | 16.58250 | 7984 ft | 235 kts | 346° |
| 2026-05-07 18:08 | 48.61238 | 16.57777 | 7984 ft | 235 kts | 346° |
| 2026-05-07 18:09 | 48.62842 | 16.57319 | 7981 ft | 235 kts | 351° |
| 2026-05-07 18:09 | 48.64464 | 16.57578 | 7991 ft | 239 kts | 20° |
| 2026-05-07 18:09 | 48.65820 | 16.59031 | 7993 ft | 244 kts | 50° |
| 2026-05-07 18:09 | 48.66532 | 16.61350 | 7991 ft | 247 kts | 82° |
| 2026-05-07 18:10 | 48.66375 | 16.63900 | 7986 ft | 246 kts | 113° |
| 2026-05-07 18:10 | 48.65407 | 16.65982 | 7986 ft | 242 kts | 144° |
| 2026-05-07 18:10 | 48.63913 | 16.67071 | 7989 ft | 238 kts | 170° |
| 2026-05-07 18:10 | 48.62292 | 16.67584 | 7987 ft | 238 kts | 172° |
| 2026-05-07 18:11 | 48.60683 | 16.68065 | 7984 ft | 238 kts | 172° |
| 2026-05-07 18:11 | 48.59583 | 16.68391 | 7986 ft | 239 kts | 172° |
| 2026-05-07 18:11 | 48.57420 | 16.69027 | 7977 ft | 238 kts | 173° |
| 2026-05-07 18:11 | 48.55794 | 16.68879 | 7985 ft | 234 kts | 201° |
| 2026-05-07 18:12 | 48.54444 | 16.67603 | 7986 ft | 229 kts | 230° |
| 2026-05-07 18:12 | 48.53669 | 16.65556 | 8007 ft | 225 kts | 256° |
| 2026-05-07 18:12 | 48.53609 | 16.63215 | 7993 ft | 225 kts | 282° |
| 2026-05-07 18:12 | 48.54265 | 16.61093 | 8009 ft | 227 kts | 308° |
| 2026-05-07 18:13 | 48.55514 | 16.59646 | 8000 ft | 231 kts | 336° |
| 2026-05-07 18:13 | 48.57079 | 16.59009 | 7991 ft | 234 kts | 345° |
| 2026-05-07 18:13 | 48.58680 | 16.58515 | 7985 ft | 234 kts | 346° |
| 2026-05-07 18:13 | 48.60279 | 16.58043 | 7985 ft | 235 kts | 346° |
| 2026-05-07 18:14 | 48.61882 | 16.57572 | 7985 ft | 235 kts | 346° |
| 2026-05-07 18:14 | 48.63499 | 16.57263 | 7981 ft | 236 kts | 2° |
| 2026-05-07 18:14 | 48.65066 | 16.58002 | 7986 ft | 241 kts | 31° |
| 2026-05-07 18:14 | 48.66201 | 16.59823 | 7985 ft | 245 kts | 62° |
| 2026-05-07 18:15 | 48.66588 | 16.62349 | 7998 ft | 246 kts | 94° |
| 2026-05-07 18:15 | 48.66090 | 16.64788 | 7992 ft | 245 kts | 125° |
| 2026-05-07 18:15 | 48.64892 | 16.66510 | 7996 ft | 240 kts | 155° |
| 2026-05-07 18:15 | 48.63317 | 16.67259 | 8000 ft | 238 kts | 171° |
| 2026-05-07 18:16 | 48.61688 | 16.67764 | 7990 ft | 239 kts | 172° |
| 2026-05-07 18:16 | 48.60070 | 16.68250 | 7993 ft | 238 kts | 172° |
| 2026-05-07 18:16 | 48.58460 | 16.68728 | 7987 ft | 239 kts | 172° |
| 2026-05-07 18:16 | 48.56823 | 16.69115 | 7983 ft | 237 kts | 183° |
| 2026-05-07 18:17 | 48.55257 | 16.68534 | 7993 ft | 232 kts | 212° |
| 2026-05-07 18:17 | 48.54090 | 16.66931 | 8004 ft | 226 kts | 240° |
| 2026-05-07 18:17 | 48.53566 | 16.64740 | 7994 ft | 224 kts | 266° |
| 2026-05-07 18:17 | 48.53769 | 16.62420 | 7998 ft | 225 kts | 292° |
| 2026-05-07 18:18 | 48.54659 | 16.60482 | 7988 ft | 228 kts | 318° |
| 2026-05-07 18:18 | 48.56058 | 16.59365 | 7996 ft | 232 kts | 343° |
| 2026-05-07 18:18 | 48.57627 | 16.58842 | 7989 ft | 234 kts | 346° |
| 2026-05-07 18:18 | 48.59243 | 16.58359 | 7987 ft | 234 kts | 347° |
| 2026-05-07 18:19 | 48.60825 | 16.57896 | 7996 ft | 235 kts | 346° |
| 2026-05-07 18:19 | 48.62425 | 16.57424 | 7999 ft | 234 kts | 347° |
| 2026-05-07 18:19 | 48.64051 | 16.57388 | 7986 ft | 238 kts | 12° |
| 2026-05-07 18:19 | 48.65521 | 16.58537 | 7999 ft | 243 kts | 42° |
| 2026-05-07 18:20 | 48.66433 | 16.60673 | 7995 ft | 246 kts | 73° |
| 2026-05-07 18:20 | 48.66518 | 16.63226 | 7992 ft | 246 kts | 105° |
| 2026-05-07 18:20 | 48.65752 | 16.65493 | 7996 ft | 243 kts | 136° |
| 2026-05-07 18:20 | 48.64360 | 16.66874 | 8000 ft | 239 kts | 166° |
| 2026-05-07 18:21 | 48.62750 | 16.67441 | 7995 ft | 238 kts | 171° |
| 2026-05-07 18:21 | 48.61120 | 16.67940 | 7999 ft | 239 kts | 171° |
| 2026-05-07 18:21 | 48.59489 | 16.68428 | 8005 ft | 242 kts | 172° |
| 2026-05-07 18:21 | 48.57698 | 16.68486 | 7994 ft | 269 kts | 194° |
| 2026-05-07 18:22 | 48.55985 | 16.67339 | 8006 ft | 273 kts | 218° |
| 2026-05-07 18:22 | 48.54980 | 16.66191 | 7988 ft | 274 kts | 219° |
| 2026-05-07 18:22 | 48.52967 | 16.63881 | 7988 ft | 274 kts | 219° |
| 2026-05-07 18:22 | 48.51440 | 16.62139 | 7989 ft | 275 kts | 219° |
| 2026-05-07 18:23 | 48.49903 | 16.60411 | 7991 ft | 276 kts | 216° |
| 2026-05-07 18:23 | 48.48116 | 16.59364 | 8009 ft | 281 kts | 189° |
| 2026-05-07 18:23 | 48.46170 | 16.59664 | 8010 ft | 286 kts | 161° |
| 2026-05-07 18:23 | 48.44486 | 16.61246 | 8004 ft | 289 kts | 139° |
| 2026-05-07 18:24 | 48.43037 | 16.63337 | 8005 ft | 289 kts | 135° |
| 2026-05-07 18:24 | 48.41616 | 16.65462 | 7979 ft | 286 kts | 136° |
| 2026-05-07 18:24 | 48.40213 | 16.67574 | 7594 ft | 285 kts | 136° |
| 2026-05-07 18:24 | 48.38817 | 16.69675 | 7208 ft | 283 kts | 135° |
| 2026-05-07 18:25 | 48.37445 | 16.71727 | 6846 ft | 280 kts | 135° |
| 2026-05-07 18:25 | 48.36066 | 16.73794 | 6418 ft | 280 kts | 136° |
| 2026-05-07 18:25 | 48.34516 | 16.75508 | 6020 ft | 276 kts | 158° |
| 2026-05-07 18:25 | 48.32662 | 16.75988 | 5641 ft | 270 kts | 188° |
| 2026-05-07 18:26 | 48.30919 | 16.75119 | 5221 ft | 263 kts | 216° |
| 2026-05-07 18:26 | 48.29733 | 16.73123 | 4994 ft | 258 kts | 246° |
| 2026-05-07 18:26 | 48.29385 | 16.70478 | 5006 ft | 263 kts | 275° |
| 2026-05-07 18:26 | 48.29942 | 16.67886 | 5012 ft | 264 kts | 304° |
| 2026-05-07 18:27 | 48.31223 | 16.65962 | 5012 ft | 258 kts | 322° |
| 2026-05-07 18:27 | 48.32667 | 16.64489 | 4914 ft | 244 kts | 325° |
| 2026-05-07 18:27 | 48.34053 | 16.63125 | 4755 ft | 234 kts | 325° |
| 2026-05-07 18:27 | 48.34952 | 16.62243 | 4587 ft | 230 kts | 323° |
| 2026-05-07 18:28 | 48.36158 | 16.59784 | 4292 ft | 215 kts | 280° |
| 2026-05-07 18:28 | 48.36048 | 16.57611 | 4061 ft | 211 kts | 247° |
| 2026-05-07 18:28 | 48.35126 | 16.55931 | 3707 ft | 214 kts | 212° |
| 2026-05-07 18:28 | 48.33735 | 16.55103 | 3393 ft | 216 kts | 197° |
| 2026-05-07 18:29 | 48.32291 | 16.54520 | 3120 ft | 214 kts | 195° |
| 2026-05-07 18:29 | 48.30847 | 16.53965 | 3008 ft | 216 kts | 195° |
| 2026-05-07 18:29 | 48.29387 | 16.53404 | 3010 ft | 217 kts | 195° |
| 2026-05-07 18:29 | 48.27923 | 16.52832 | 3008 ft | 218 kts | 195° |
| 2026-05-07 18:30 | 48.26468 | 16.52276 | 3009 ft | 218 kts | 193° |
| 2026-05-07 18:30 | 48.24941 | 16.52308 | 3010 ft | 220 kts | 167° |
| 2026-05-07 18:30 | 48.23477 | 16.52922 | 2898 ft | 221 kts | 165° |
| 2026-05-07 18:30 | 48.22006 | 16.53559 | 2649 ft | 219 kts | 166° |
| 2026-05-07 18:31 | 48.20550 | 16.54180 | 2368 ft | 215 kts | 165° |
| 2026-05-07 18:31 | 48.19135 | 16.54782 | 2113 ft | 205 kts | 165° |
| 2026-05-07 18:31 | 48.17832 | 16.55336 | 1890 ft | 182 kts | 166° |
| 2026-05-07 18:31 | 48.16688 | 16.55819 | 1647 ft | 163 kts | 165° |
| 2026-05-07 18:32 | 48.15657 | 16.56255 | 1461 ft | 147 kts | 165° |
| 2026-05-07 18:32 | 48.14704 | 16.56669 | 1167 ft | 138 kts | 167° |
| 2026-05-07 18:32 | 48.13813 | 16.57057 | 957 ft | 134 kts | 169° |
| 2026-05-07 18:32 | 48.12914 | 16.57434 | 823 ft | 133 kts | 172° |
| 2026-05-07 18:33 | 48.12024 | 16.57805 | 663 ft | 132 kts | 169° |
| 2026-05-07 18:33 | 48.11204 | 16.58147 | 617 ft | 106 kts | 165° |
| 2026-05-07 18:33 | 48.10947 | 16.58253 | 619 ft | 87 kts | 164° |
| 2026-05-07 18:33 | 48.10928 | 16.58261 | 621 ft | 82 kts | 164° |